Time;durP1;ratioP1;P1;durP2;ratioP2;P2;SDS_P1;SDS_P2;PMS_P1;PMS_P2;Temp;Humidity;BMP_temperature;BMP_pressure;BME280_temperature;BME280_humidity;BME280_pressure;Samples;Min_cycle;Max_cycle;Signal;HPM_P1;HPM_P2
2022/12/10 00:00:34;;;;;;;;;;;;;;;;;;5035802;28;19972;-71
2022/12/10 00:03:01;;;;;;;;;;;;;;;;;;5020759;28;20012;-72
2022/12/10 00:05:27;;;;;;;;;;;;;;;;;;5016097;28;20012;-72
2022/12/10 00:07:55;;;;;;;;;;;;;;;;;;5015614;28;20020;-72
2022/12/10 00:10:21;;;;;;;;;;;;;;;;;;5015599;28;19925;-72
2022/12/10 00:12:48;;;;;;;;;;;;;;;;;;5015553;28;20355;-73
2022/12/10 00:15:14;;;;;;;;;;;;;;;;;;5021823;28;20442;-72
2022/12/10 00:17:40;;;;;;;;;;;;;;;;;;5034743;28;20375;-72
2022/12/10 00:20:07;;;;;;;;;;;;;;;;;;5035642;28;19968;-72
2022/12/10 00:22:34;;;;;;;;;;;;;;;;;;5020119;28;20434;-71
2022/12/10 00:25:02;;;;;;;;;;;;;;;;;;5015884;28;20443;-73
2022/12/10 00:27:28;;;;;;;;;;;;;;;;;;5028255;28;20004;-72
2022/12/10 00:29:55;;;;;;;;;;;;;;;;;;5028905;28;19972;-71
2022/12/10 00:32:21;;;;;;;;;;;;;;;;;;5015865;28;19957;-72
2022/12/10 00:34:47;;;;;;;;;;;;;;;;;;5015684;28;20024;-72
2022/12/10 00:37:14;;;;;;;;;;;;;;;;;;5026457;28;20027;-72
2022/12/10 00:39:40;;;;;;;;;;;;;;;;;;5020721;28;19971;-73
2022/12/10 00:42:08;;;;;;;;;;;;;;;;;;5015641;28;19973;-73
2022/12/10 00:44:34;;;;;;;;;;;;;;;;;;5027682;28;19980;-71
2022/12/10 00:47:01;;;;;;;;;;;;;;;;;;5027382;28;20472;-72
2022/12/10 00:49:27;;;;;;;;;;;;;;;;;;5032961;28;20319;-73
2022/12/10 00:51:54;;;;;;;;;;;;;;;;;;5034833;28;20487;-71
2022/12/10 00:54:21;;;;;;;;;;;;;;;;;;5022355;28;19980;-72
2022/12/10 00:56:48;;;;;;;;;;;;;;;;;;5034416;28;20380;-73
2022/12/10 00:59:16;;;;;;;;;;;;;;;;;;5029365;28;19925;-73
2022/12/10 01:01:43;;;;;;;;;;;;;;;;;;4995266;28;20440;-73
2022/12/10 01:04:10;;;;;;;;;;;;;;;;;;5012101;28;19969;-73
2022/12/10 01:06:38;;;;;;;;;;;;;;;;;;5029242;28;19968;-73
2022/12/10 01:09:05;;;;;;;;;;;;;;;;;;5034752;28;20024;-72
2022/12/10 01:11:33;;;;;;;;;;;;;;;;;;5022292;28;20407;-73
2022/12/10 01:13:59;;;;;;;;;;;;;;;;;;5023260;28;19926;-73
2022/12/10 01:16:27;;;;;;;;;;;;;;;;;;5028264;28;20020;-74
2022/12/10 01:18:54;;;;;;;;;;;;;;;;;;5034671;28;19925;-72
2022/12/10 01:21:21;;;;;;;;;;;;;;;;;;5023492;28;20355;-72
2022/12/10 01:23:49;;;;;;;;;;;;;;;;;;5030633;28;19965;-73
2022/12/10 01:26:17;;;;;;;;;;;;;;;;;;5029053;28;20440;-74
2022/12/10 01:28:44;;;;;;;;;;;;;;;;;;5025849;28;20432;-73
2022/12/10 01:31:12;;;;;;;;;;;;;;;;;;5025172;28;20396;-70
2022/12/10 01:33:40;;;;;;;;;;;;;;;;;;5014448;28;20364;-73
2022/12/10 01:36:07;;;;;;;;;;;;;;;;;;5014747;28;19925;-73
2022/12/10 01:38:40;;;;;;;;;;;;;;;;;;5035394;28;19960;-71
2022/12/10 01:41:08;;;;;;;;;;;;;;;;;;5034979;28;19944;-72
2022/12/10 01:43:49;;;;;;;;;;;;;;;;;;5016561;28;20024;-73
2022/12/10 01:46:15;;;;;;;;;;;;;;;;;;5021047;28;20291;-70
2022/12/10 01:48:43;;;;;;;;;;;;;;;;;;5033244;28;20363;-72
2022/12/10 01:51:10;;;;;;;;;;;;;;;;;;5027420;28;19983;-73
2022/12/10 01:53:37;;;;;;;;;;;;;;;;;;5014841;28;19932;-73
2022/12/10 01:56:03;;;;;;;;;;;;;;;;;;5014151;28;19961;-73
2022/12/10 01:58:30;;;;;;;;;;;;;;;;;;5013719;28;19968;-72
2022/12/10 02:01:02;;;;;;;;;;;;;;;;;;5013102;28;19972;-73
2022/12/10 02:03:32;;;;;;;;;;;;;;;;;;5014943;28;19959;-72
2022/12/10 02:06:04;;;;;;;;;;;;;;;;;;5013378;28;20357;-72
2022/12/10 02:08:36;;;;;;;;;;;;;;;;;;5008039;28;20028;-73
2022/12/10 02:11:06;;;;;;;;;;;;;;;;;;5022599;28;19968;-73
2022/12/10 02:13:37;;;;;;;;;;;;;;;;;;5025670;28;19935;-71
2022/12/10 02:16:08;;;;;;;;;;;;;;;;;;5025171;28;20404;-71
2022/12/10 02:18:36;;;;;;;;;;;;;;;;;;5019841;28;20387;-72
2022/12/10 02:21:06;;;;;;;;;;;;;;;;;;5032835;28;20016;-73
2022/12/10 02:23:36;;;;;;;;;;;;;;;;;;5027260;28;20345;-72
2022/12/10 02:26:04;;;;;;;;;;;;;;;;;;5026585;28;20409;-73
2022/12/10 02:28:34;;;;;;;;;;;;;;;;;;5017925;28;19960;-72
2022/12/10 02:31:03;;;;;;;;;;;;;;;;;;5019435;28;20376;-73
2022/12/10 02:33:30;;;;;;;;;;;;;;;;;;5014668;28;20017;-73
2022/12/10 02:35:58;;;;;;;;;;;;;;;;;;5015801;28;19932;-73
2022/12/10 02:38:26;;;;;;;;;;;;;;;;;;5013078;28;19936;-72
2022/12/10 02:40:56;;;;;;;;;;;;;;;;;;5013689;28;20296;-73
2022/12/10 02:43:23;;;;;;;;;;;;;;;;;;5032738;28;19933;-73
2022/12/10 02:45:50;;;;;;;;;;;;;;;;;;5025143;28;20020;-73
2022/12/10 02:48:19;;;;;;;;;;;;;;;;;;5013710;28;20041;-73
2022/12/10 02:50:45;;;;;;;;;;;;;;;;;;5013920;28;19961;-73
2022/12/10 02:53:12;;;;;;;;;;;;;;;;;;5021808;28;20465;-71
2022/12/10 02:55:43;;;;;;;;;;;;;;;;;;5032050;28;19968;-73
2022/12/10 02:58:15;;;;;;;;;;;;;;;;;;5004670;28;20024;-73
2022/12/10 03:00:44;;;;;;;;;;;;;;;;;;5007121;28;19936;-73
2022/12/10 03:03:18;;;;;;;;;;;;;;;;;;5013853;28;20009;-72
2022/12/10 03:05:49;;;;;;;;;;;;;;;;;;5013322;28;19929;-71
2022/12/10 03:08:18;;;;;;;;;;;;;;;;;;5013975;28;20012;-73
2022/12/10 03:10:49;;;;;;;;;;;;;;;;;;5012459;28;19933;-71
2022/12/10 03:13:17;;;;;;;;;;;;;;;;;;5032242;28;20439;-72
2022/12/10 03:15:43;;;;;;;;;;;;;;;;;;5032314;28;19978;-70
2022/12/10 03:18:11;;;;;;;;;;;;;;;;;;5022165;28;20351;-72
2022/12/10 03:20:40;;;;;;;;;;;;;;;;;;5011355;28;19926;-72
2022/12/10 03:23:10;;;;;;;;;;;;;;;;;;5012463;28;19968;-72
2022/12/10 03:25:38;;;;;;;;;;;;;;;;;;5014691;28;19972;-72
2022/12/10 03:28:04;;;;;;;;;;;;;;;;;;5032213;28;19967;-72
2022/12/10 03:30:33;;;;;;;;;;;;;;;;;;5015858;28;19976;-72
2022/12/10 03:32:59;;;;;;;;;;;;;;;;;;5012507;28;19965;-73
2022/12/10 03:35:26;;;;;;;;;;;;;;;;;;5016017;28;19979;-72
2022/12/10 03:37:53;;;;;;;;;;;;;;;;;;5013406;28;20024;-73
2022/12/10 03:40:22;;;;;;;;;;;;;;;;;;5013876;28;19925;-73
2022/12/10 03:42:48;;;;;;;;;;;;;;;;;;5031779;28;19937;-72
2022/12/10 03:48:17;;;;;;;;;;;;;;;;;;5010967;28;20311;-73
2022/12/10 04:02:29;;;;;;;;;;;;;;;;;;5060737;28;20427;-73
2022/12/10 04:04:55;;;;;;;;;;;;;;;;;;5064546;28;19932;-73
2022/12/10 04:07:22;;;;;;;;;;;;;;;;;;5098808;28;19931;-73
2022/12/10 04:09:48;;;;;;;;;;;;;;;;;;5102561;28;19931;-73
2022/12/10 04:12:14;;;;;;;;;;;;;;;;;;5089846;28;19931;-73
2022/12/10 04:27:49;;;;;;;;;;;;;;;;;;5178638;27;19934;-49
2022/12/10 04:30:14;;;;;;;;;;;;;;;;;;5150723;27;19924;-52
2022/12/10 04:32:40;;;;;;;;;;;;;;;;;;5117928;28;19924;-48
2022/12/10 04:35:07;;;;;;;;;;;;;;;;;;5086491;28;20016;-51
2022/12/10 04:37:33;;;;;;;;;;;;;;;;;;5050849;28;19924;-51
2022/12/10 04:39:59;;;;;;;;;;;;;;;;;;5066709;28;19968;-49
2022/12/10 04:45:45;;;;;;;;;;;;;;;;;;5213425;27;19922;-51
2022/12/10 04:48:11;;;;;;;;;;;;;;;;;;5058681;27;1967905;-51
2022/12/10 04:50:38;;;;;;;;;;;;;;;;;;5114563;28;19924;-52
2022/12/10 04:53:04;;;;;;;;;;;;;;;;;;5098931;28;19970;-51
2022/12/10 04:55:31;;;;;;;;;;;;;;;;;;5099791;28;19925;-52
2022/12/10 04:57:58;;;;;;;;;;;;;;;;;;5099336;28;19970;-49
2022/12/10 05:00:25;;;;;;;;;;;;;;;;;;5099845;28;20013;-49
2022/12/10 05:02:53;;;;;;;;;;;;;;;;;;5099829;28;20470;-48
2022/12/10 05:05:19;;;;;;;;;;;;;;;;;;5116572;28;19927;-49
2022/12/10 05:07:46;;;;;;;;;;;;;;;;;;5111237;28;19924;-48
2022/12/10 05:10:12;;;;;;;;;;;;;;;;;;5119502;28;19924;-52
2022/12/10 05:12:39;;;;;;;;;;;;;;;;;;5106909;28;20088;-49
2022/12/10 05:15:06;;;;;;;;;;;;;;;;;;5108511;28;19924;-51
2022/12/10 05:17:33;;;;;;;;;;;;;;;;;;5104918;28;19924;-49
2022/12/10 05:20:01;;;;;;;;;;;;;;;;;;5098711;28;19974;-50
2022/12/10 05:25:12;;;;;;;;;;;;;;;;;;5113636;28;19974;-49
2022/12/10 05:27:38;;;;;;;;;;;;;;;;;;5100353;28;19977;-53
2022/12/10 05:30:05;;;;;;;;;;;;;;;;;;5117161;28;20389;-50
2022/12/10 05:32:33;;;;;;;;;;;;;;;;;;5116397;28;19982;-48
2022/12/10 05:35:01;;;;;;;;;;;;;;;;;;5113529;28;19998;-50
2022/12/10 05:37:28;;;;;;;;;;;;;;;;;;5099130;28;20377;-51
2022/12/10 05:39:54;;;;;;;;;;;;;;;;;;5118803;28;20381;-47
2022/12/10 05:42:21;;;;;;;;;;;;;;;;;;5116678;28;19924;-51
2022/12/10 05:44:47;;;;;;;;;;;;;;;;;;5118906;28;19924;-48
2022/12/10 05:47:14;;;;;;;;;;;;;;;;;;5109993;28;20342;-51
2022/12/10 05:49:40;;;;;;;;;;;;;;;;;;5118603;28;20041;-50
2022/12/10 05:52:09;;;;;;;;;;;;;;;;;;5130686;28;19972;-50
2022/12/10 05:54:35;;;;;;;;;;;;;;;;;;5118708;28;20023;-50
2022/12/10 05:57:02;;;;;;;;;;;;;;;;;;5119967;28;19927;-48
2022/12/10 05:59:28;;;;;;;;;;;;;;;;;;5123092;28;19924;-48
2022/12/10 06:01:55;;;;;;;;;;;;;;;;;;5115388;28;19950;-50
2022/12/10 06:04:21;;;;;;;;;;;;;;;;;;5112865;28;20304;-49
2022/12/10 06:06:49;;;;;;;;;;;;;;;;;;5124159;28;19924;-47
2022/12/10 06:09:17;;;;;;;;;;;;;;;;;;5122772;28;19924;-52
2022/12/10 06:11:44;;;;;;;;;;;;;;;;;;5118000;28;19928;-50
2022/12/10 06:14:11;;;;;;;;;;;;;;;;;;5104909;28;19949;-52
2022/12/10 06:16:37;;;;;;;;;;;;;;;;;;5108386;28;19931;-51
2022/12/10 06:19:04;;;;;;;;;;;;;;;;;;5121900;28;19924;-50
2022/12/10 06:21:30;;;;;;;;;;;;;;;;;;5105279;28;19928;-48
2022/12/10 06:23:57;;;;;;;;;;;;;;;;;;5106270;28;19932;-49
2022/12/10 06:26:26;;;;;;;;;;;;;;;;;;5107885;28;19950;-49
2022/12/10 06:28:53;;;;;;;;;;;;;;;;;;5123051;28;19932;-48
2022/12/10 06:31:19;;;;;;;;;;;;;;;;;;5105410;28;19924;-52
2022/12/10 06:33:46;;;;;;;;;;;;;;;;;;5105217;28;19971;-53
2022/12/10 06:36:14;;;;;;;;;;;;;;;;;;5111102;28;20396;-50
2022/12/10 06:38:41;;;;;;;;;;;;;;;;;;5123143;28;19936;-50
2022/12/10 06:41:08;;;;;;;;;;;;;;;;;;5106819;28;19946;-48
2022/12/10 06:43:36;;;;;;;;;;;;;;;;;;5125317;28;20388;-51
2022/12/10 06:46:05;;;;;;;;;;;;;;;;;;5105129;28;20372;-51
2022/12/10 06:48:31;;;;;;;;;;;;;;;;;;5104262;28;19984;-50
2022/12/10 06:50:58;;;;;;;;;;;;;;;;;;5122216;28;20449;-47
2022/12/10 06:53:24;;;;;;;;;;;;;;;;;;5124308;28;19931;-47
2022/12/10 06:55:51;;;;;;;;;;;;;;;;;;5107543;28;19950;-54
2022/12/10 06:58:17;;;;;;;;;;;;;;;;;;5105186;28;19924;-52
2022/12/10 07:00:45;;;;;;;;;;;;;;;;;;5116904;28;19984;-48
2022/12/10 07:03:12;;;;;;;;;;;;;;;;;;5124302;28;19930;-51
2022/12/10 07:05:38;;;;;;;;;;;;;;;;;;5116327;28;19945;-47
2022/12/10 07:08:05;;;;;;;;;;;;;;;;;;5122047;28;20493;-50
2022/12/10 07:10:31;;;;;;;;;;;;;;;;;;5111218;28;20311;-48
2022/12/10 07:12:58;;;;;;;;;;;;;;;;;;5119669;28;19924;-46
2022/12/10 07:15:27;;;;;;;;;;;;;;;;;;5122062;28;19954;-48
2022/12/10 07:17:55;;;;;;;;;;;;;;;;;;5107954;28;19924;-49
2022/12/10 07:20:21;;;;;;;;;;;;;;;;;;5117457;27;19924;-48
2022/12/10 07:22:48;;;;;;;;;;;;;;;;;;5105651;28;19924;-50
2022/12/10 07:25:14;;;;;;;;;;;;;;;;;;5133328;27;20373;-50
2022/12/10 07:27:41;;;;;;;;;;;;;;;;;;5104085;28;19931;-48
2022/12/10 07:30:08;;;;;;;;;;;;;;;;;;5105728;28;19924;-51
2022/12/10 07:32:34;;;;;;;;;;;;;;;;;;5123171;28;19923;-49
2022/12/10 07:35:02;;;;;;;;;;;;;;;;;;5124517;28;19923;-52
2022/12/10 07:37:29;;;;;;;;;;;;;;;;;;5106361;28;20015;-51
2022/12/10 07:39:56;;;;;;;;;;;;;;;;;;5104284;28;19924;-48
2022/12/10 07:42:22;;;;;;;;;;;;;;;;;;5119998;28;19945;-47
2022/12/10 07:44:49;;;;;;;;;;;;;;;;;;5124787;28;19924;-47
2022/12/10 07:47:15;;;;;;;;;;;;;;;;;;5108443;28;20334;-51
2022/12/10 07:49:42;;;;;;;;;;;;;;;;;;5103864;28;19946;-51
2022/12/10 07:52:10;;;;;;;;;;;;;;;;;;5112650;28;19977;-49
2022/12/10 07:54:36;;;;;;;;;;;;;;;;;;5123205;28;20300;-48
2022/12/10 07:57:03;;;;;;;;;;;;;;;;;;5122184;28;19959;-50
2022/12/10 07:59:30;;;;;;;;;;;;;;;;;;5121054;28;19924;-50
2022/12/10 08:01:57;;;;;;;;;;;;;;;;;;5102506;28;20018;-49
2022/12/10 08:04:58;;;;;;;;;;;;;;;;;;5112191;28;19923;-48
2022/12/10 08:10:29;;;;;;;;;;;;;;;;;;5118496;28;19946;-48
2022/12/10 08:12:55;;;;;;;;;;;;;;;;;;5122953;28;19923;-49
2022/12/10 08:15:22;;;;;;;;;;;;;;;;;;5118526;28;20025;-52
2022/12/10 08:17:48;;;;;;;;;;;;;;;;;;5112817;28;19931;-51
2022/12/10 08:20:15;;;;;;;;;;;;;;;;;;5108600;28;19924;-51
2022/12/10 08:22:41;;;;;;;;;;;;;;;;;;5101826;28;19924;-50
2022/12/10 08:25:08;;;;;;;;;;;;;;;;;;5112972;28;19924;-51
2022/12/10 08:27:36;;;;;;;;;;;;;;;;;;5122351;28;19924;-48
2022/12/10 08:30:03;;;;;;;;;;;;;;;;;;5121307;28;20308;-52
2022/12/10 08:32:30;;;;;;;;;;;;;;;;;;5121693;28;19927;-48
2022/12/10 08:34:56;;;;;;;;;;;;;;;;;;5111810;28;19924;-48
2022/12/10 08:37:23;;;;;;;;;;;;;;;;;;5101965;28;20346;-50
2022/12/10 08:39:49;;;;;;;;;;;;;;;;;;5106857;28;19946;-50
2022/12/10 08:42:16;;;;;;;;;;;;;;;;;;5108219;28;19923;-50
2022/12/10 08:44:44;;;;;;;;;;;;;;;;;;5118387;28;19924;-50
2022/12/10 08:47:10;;;;;;;;;;;;;;;;;;5101552;28;19924;-52
2022/12/10 08:49:37;;;;;;;;;;;;;;;;;;5114696;28;19928;-52
2022/12/10 08:52:03;;;;;;;;;;;;;;;;;;5121221;28;19924;-51
2022/12/10 08:54:30;;;;;;;;;;;;;;;;;;5115048;28;19954;-54
2022/12/10 08:56:56;;;;;;;;;;;;;;;;;;5118757;28;19985;-49
2022/12/10 08:59:23;;;;;;;;;;;;;;;;;;5102306;28;19924;-52
2022/12/10 09:01:51;;;;;;;;;;;;;;;;;;5103268;28;19924;-50
2022/12/10 09:04:18;;;;;;;;;;;;;;;;;;5103390;28;19971;-50
2022/12/10 09:06:44;;;;;;;;;;;;;;;;;;5103278;28;19931;-48
2022/12/10 09:09:12;;;;;;;;;;;;;;;;;;5103731;28;20454;-50
2022/12/10 09:11:38;;;;;;;;;;;;;;;;;;5116796;28;19924;-50
2022/12/10 09:14:05;;;;;;;;;;;;;;;;;;5122102;28;19924;-48
2022/12/10 09:16:32;;;;;;;;;;;;;;;;;;5115896;28;19928;-49
2022/12/10 09:19:00;;;;;;;;;;;;;;;;;;5101310;28;20442;-49
2022/12/10 09:21:27;;;;;;;;;;;;;;;;;;5111479;28;19932;-48
2022/12/10 09:23:54;;;;;;;;;;;;;;;;;;5117589;28;19993;-49
2022/12/10 09:26:20;;;;;;;;;;;;;;;;;;5121867;28;19924;-48
2022/12/10 09:28:47;;;;;;;;;;;;;;;;;;5120336;28;19928;-50
2022/12/10 09:31:15;;;;;;;;;;;;;;;;;;5103440;28;19928;-50
2022/12/10 09:33:42;;;;;;;;;;;;;;;;;;5113294;28;19981;-50
2022/12/10 09:36:11;;;;;;;;;;;;;;;;;;5133403;27;20330;-53
2022/12/10 09:41:47;;;;;;;;;;;;;;;;;;5119688;27;19923;-51
2022/12/10 09:44:17;;;;;;;;;;;;;;;;;;5129124;27;19982;-54
2022/12/10 09:46:49;;;;;;;;;;;;;;;;;;5112330;27;19974;-51
2022/12/10 09:49:19;;;;;;;;;;;;;;;;;;5095400;28;20550;-50
2022/12/10 09:51:47;;;;;;;;;;;;;;;;;;5099811;28;19924;-50
2022/12/10 09:54:19;;;;;;;;;;;;;;;;;;5105725;27;19932;-52
2022/12/10 09:56:46;;;;;;;;;;;;;;;;;;5114526;28;19949;-50
2022/12/10 09:59:16;;;;;;;;;;;;;;;;;;5115461;28;19928;-50
2022/12/10 10:01:44;;;;;;;;;;;;;;;;;;5114547;28;19928;-54
2022/12/10 10:04:10;;;;;;;;;;;;;;;;;;5108462;28;19924;-52
2022/12/10 10:06:37;;;;;;;;;;;;;;;;;;5096364;28;19928;-50
2022/12/10 10:09:05;;;;;;;;;;;;;;;;;;5111575;22;19938;-73
2022/12/10 10:11:33;;;;;;;;;;;;;;;;;;5094971;28;19955;-72
2022/12/10 10:14:02;;;;;;;;;;;;;;;;;;5094359;28;19924;-73
2022/12/10 10:16:33;;;;;;;;;;;;;;;;;;5092503;28;19925;-73
2022/12/10 10:19:01;;;;;;;;;;;;;;;;;;5084672;28;19925;-72
2022/12/10 10:21:28;;;;;;;;;;;;;;;;;;5072785;28;19925;-73
2022/12/10 10:23:55;;;;;;;;;;;;;;;;;;5072697;28;19925;-73
2022/12/10 10:26:24;;;;;;;;;;;;;;;;;;5075349;28;19943;-75
2022/12/10 10:28:53;;;;;;;;;;;;;;;;;;5076157;28;19940;-76
2022/12/10 10:31:21;;;;;;;;;;;;;;;;;;5076080;28;19925;-79
2022/12/10 10:33:56;;;;;;;;;;;;;;;;;;5076549;28;19913;-77
2022/12/10 10:36:56;;;;;;;;;;;;;;;;;;5070161;28;20027;-73
2022/12/10 10:39:27;;;;;;;;;;;;;;;;;;5071883;28;19931;-73
2022/12/10 10:44:57;;;;;;;;;;;;;;;;;;5071687;28;19923;-73
2022/12/10 10:47:25;;;;;;;;;;;;;;;;;;5067614;28;20015;-71
2022/12/10 10:49:53;;;;;;;;;;;;;;;;;;5073891;28;19980;-72
2022/12/10 10:52:20;;;;;;;;;;;;;;;;;;5075200;28;19924;-72
2022/12/10 10:54:47;;;;;;;;;;;;;;;;;;5075964;28;19913;-72
2022/12/10 10:57:16;;;;;;;;;;;;;;;;;;5074704;28;19964;-72
2022/12/10 10:59:43;;;;;;;;;;;;;;;;;;5075744;28;19948;-73
2022/12/10 11:02:18;;;;;;;;;;;;;;;;;;5074954;28;19932;-73
2022/12/10 11:04:47;;;;;;;;;;;;;;;;;;5064867;28;19925;-73
2022/12/10 11:07:16;;;;;;;;;;;;;;;;;;5065496;28;19932;-73
2022/12/10 11:09:44;;;;;;;;;;;;;;;;;;5075520;28;19935;-73
2022/12/10 11:12:22;;;;;;;;;;;;;;;;;;5074109;28;19933;-73
2022/12/10 11:14:49;;;;;;;;;;;;;;;;;;5073041;28;19924;-73
2022/12/10 11:17:21;;;;;;;;;;;;;;;;;;5072357;28;19924;-73
2022/12/10 11:19:55;;;;;;;;;;;;;;;;;;5065655;28;19932;-74
2022/12/10 11:22:22;;;;;;;;;;;;;;;;;;5059744;28;19932;-74
2022/12/10 11:24:49;;;;;;;;;;;;;;;;;;5057974;28;20019;-73
2022/12/10 11:27:18;;;;;;;;;;;;;;;;;;5058771;28;19925;-73
2022/12/10 11:29:49;;;;;;;;;;;;;;;;;;5058061;28;20457;-73
2022/12/10 11:32:27;;;;;;;;;;;;;;;;;;5056817;28;19971;-73
2022/12/10 11:35:00;;;;;;;;;;;;;;;;;;5056931;28;20391;-73
2022/12/10 11:37:30;;;;;;;;;;;;;;;;;;5056792;28;19971;-73
2022/12/10 11:40:08;;;;;;;;;;;;;;;;;;5055007;28;19971;-74
2022/12/10 11:42:43;;;;;;;;;;;;;;;;;;5054869;28;19947;-74
2022/12/10 11:45:16;;;;;;;;;;;;;;;;;;5056067;28;19925;-73
2022/12/10 11:47:52;;;;;;;;;;;;;;;;;;5057743;28;20426;-73
2022/12/10 11:50:23;;;;;;;;;;;;;;;;;;5057086;28;19956;-74
2022/12/10 11:52:58;;;;;;;;;;;;;;;;;;5057244;28;19949;-73
2022/12/10 11:55:31;;;;;;;;;;;;;;;;;;5056102;28;19924;-72
2022/12/10 11:58:04;;;;;;;;;;;;;;;;;;5055036;28;19968;-72
2022/12/10 12:00:35;;;;;;;;;;;;;;;;;;5053382;28;19957;-73
2022/12/10 12:03:08;;;;;;;;;;;;;;;;;;5054567;28;19975;-73
2022/12/10 12:05:47;;;;;;;;;;;;;;;;;;5040127;28;19995;-72
2022/12/10 12:08:17;;;;;;;;;;;;;;;;;;5053846;28;20406;-73
2022/12/10 12:10:49;;;;;;;;;;;;;;;;;;5052944;28;19929;-74
2022/12/10 12:13:17;;;;;;;;;;;;;;;;;;5053382;28;19924;-73
2022/12/10 12:15:45;;;;;;;;;;;;;;;;;;5053267;28;19960;-73
2022/12/10 12:18:17;;;;;;;;;;;;;;;;;;5053150;28;20012;-73
2022/12/10 12:20:46;;;;;;;;;;;;;;;;;;5053125;28;19968;-73
2022/12/10 12:23:15;;;;;;;;;;;;;;;;;;5053024;28;20407;-73
2022/12/10 12:25:45;;;;;;;;;;;;;;;;;;5053389;28;19972;-73
2022/12/10 12:28:14;;;;;;;;;;;;;;;;;;5053292;28;20406;-73
2022/12/10 12:30:42;;;;;;;;;;;;;;;;;;5053617;28;19972;-73
2022/12/10 12:33:11;;;;;;;;;;;;;;;;;;5057763;28;19924;-73
2022/12/10 12:35:41;;;;;;;;;;;;;;;;;;5053391;28;19925;-73
2022/12/10 12:38:18;;;;;;;;;;;;;;;;;;5053581;28;19944;-73
2022/12/10 12:40:49;;;;;;;;;;;;;;;;;;5053142;28;20359;-74
2022/12/10 12:43:18;;;;;;;;;;;;;;;;;;5052964;28;19960;-73
2022/12/10 12:45:46;;;;;;;;;;;;;;;;;;5053497;28;19963;-73
2022/12/10 12:48:18;;;;;;;;;;;;;;;;;;5052823;28;20016;-73
2022/12/10 12:50:47;;;;;;;;;;;;;;;;;;5053187;28;19931;-73
2022/12/10 12:53:15;;;;;;;;;;;;;;;;;;5052878;28;19971;-72
2022/12/10 12:55:46;;;;;;;;;;;;;;;;;;5053253;28;19928;-73
2022/12/10 12:58:16;;;;;;;;;;;;;;;;;;5053206;28;19992;-73
2022/12/10 13:00:44;;;;;;;;;;;;;;;;;;5053203;28;19983;-73
2022/12/10 13:03:20;;;;;;;;;;;;;;;;;;5052705;28;20340;-72
2022/12/10 13:05:50;;;;;;;;;;;;;;;;;;5033686;28;19956;-74
2022/12/10 13:08:25;;;;;;;;;;;;;;;;;;5044413;28;20341;-74
2022/12/10 13:10:53;;;;;;;;;;;;;;;;;;5056617;28;20315;-74
2022/12/10 13:13:24;;;;;;;;;;;;;;;;;;5056265;28;19968;-75
2022/12/10 13:15:50;;;;;;;;;;;;;;;;;;5056914;28;20031;-74
2022/12/10 13:18:22;;;;;;;;;;;;;;;;;;5056709;28;19931;-73
2022/12/10 13:20:53;;;;;;;;;;;;;;;;;;5056677;28;19951;-74
2022/12/10 13:23:34;;;;;;;;;;;;;;;;;;5059324;28;19933;-73
2022/12/10 13:26:02;;;;;;;;;;;;;;;;;;5060388;28;19929;-73
2022/12/10 13:28:40;;;;;;;;;;;;;;;;;;5063488;28;19931;-72
2022/12/10 13:31:08;;;;;;;;;;;;;;;;;;5062755;28;19978;-72
2022/12/10 13:33:46;;;;;;;;;;;;;;;;;;5065788;28;19932;-72
2022/12/10 13:36:20;;;;;;;;;;;;;;;;;;5064367;28;19987;-73
2022/12/10 13:38:55;;;;;;;;;;;;;;;;;;5062029;28;19979;-73
2022/12/10 13:44:25;;;;;;;;;;;;;;;;;;5062980;28;19936;-73
2022/12/10 13:46:56;;;;;;;;;;;;;;;;;;5063319;28;19929;-73
2022/12/10 13:49:23;;;;;;;;;;;;;;;;;;5063434;28;19991;-75
2022/12/10 13:51:55;;;;;;;;;;;;;;;;;;5062379;28;19925;-73
2022/12/10 13:54:36;;;;;;;;;;;;;;;;;;5064440;28;19928;-71
2022/12/10 13:57:08;;;;;;;;;;;;;;;;;;5063623;28;19971;-73
2022/12/10 13:59:40;;;;;;;;;;;;;;;;;;5062325;28;19971;-73
2022/12/10 14:02:22;;;;;;;;;;;;;;;;;;5064434;28;19979;-74
2022/12/10 14:05:04;;;;;;;;;;;;;;;;;;5066085;28;19992;-74
2022/12/10 14:07:32;;;;;;;;;;;;;;;;;;5064480;28;20394;-73
2022/12/10 14:10:03;;;;;;;;;;;;;;;;;;5063471;28;19925;-74
2022/12/10 14:12:32;;;;;;;;;;;;;;;;;;5062799;28;19935;-74
2022/12/10 14:15:00;;;;;;;;;;;;;;;;;;5063274;28;19925;-73
2022/12/10 14:17:32;;;;;;;;;;;;;;;;;;5063212;28;20395;-73
2022/12/10 14:19:59;;;;;;;;;;;;;;;;;;5064824;28;19960;-73
2022/12/10 14:22:30;;;;;;;;;;;;;;;;;;5064038;28;19956;-74
2022/12/10 14:24:59;;;;;;;;;;;;;;;;;;5064737;28;19964;-74
2022/12/10 14:27:27;;;;;;;;;;;;;;;;;;5061341;28;19928;-74
2022/12/10 14:29:55;;;;;;;;;;;;;;;;;;5059647;28;19932;-73
2022/12/10 14:32:25;;;;;;;;;;;;;;;;;;5057884;28;19932;-74
2022/12/10 14:34:53;;;;;;;;;;;;;;;;;;5058142;28;19975;-72
2022/12/10 14:37:21;;;;;;;;;;;;;;;;;;5056433;28;19925;-74
2022/12/10 14:39:47;;;;;;;;;;;;;;;;;;5057741;28;20019;-74
2022/12/10 14:42:17;;;;;;;;;;;;;;;;;;5058172;28;19986;-74
2022/12/10 14:44:44;;;;;;;;;;;;;;;;;;5056994;28;20015;-73
2022/12/10 14:47:14;;;;;;;;;;;;;;;;;;5060216;28;19971;-75
2022/12/10 14:49:41;;;;;;;;;;;;;;;;;;5058790;28;19925;-74
2022/12/10 14:52:11;;;;;;;;;;;;;;;;;;5058331;28;19924;-74
2022/12/10 14:54:37;;;;;;;;;;;;;;;;;;5056510;28;19951;-73
2022/12/10 14:57:05;;;;;;;;;;;;;;;;;;5056240;28;19964;-73
2022/12/10 14:59:37;;;;;;;;;;;;;;;;;;5036782;28;19975;-74
2022/12/10 15:02:07;;;;;;;;;;;;;;;;;;5035568;28;19929;-74
2022/12/10 15:04:40;;;;;;;;;;;;;;;;;;5054590;28;19975;-74
2022/12/10 15:07:10;;;;;;;;;;;;;;;;;;5053963;28;19925;-74
2022/12/10 15:09:37;;;;;;;;;;;;;;;;;;5054519;28;19955;-74
2022/12/10 15:12:03;;;;;;;;;;;;;;;;;;5055632;28;20480;-74
2022/12/10 15:14:31;;;;;;;;;;;;;;;;;;5057528;28;19925;-74
2022/12/10 15:16:58;;;;;;;;;;;;;;;;;;5055384;28;19948;-74
2022/12/10 15:19:26;;;;;;;;;;;;;;;;;;5054504;28;19967;-73
2022/12/10 15:21:53;;;;;;;;;;;;;;;;;;5054325;28;20445;-73
2022/12/10 15:24:21;;;;;;;;;;;;;;;;;;5054536;28;19968;-75
2022/12/10 15:26:48;;;;;;;;;;;;;;;;;;5053983;28;19925;-73
2022/12/10 15:29:42;;;;;;;;;;;;;;;;;;5053612;28;19968;-72
2022/12/10 15:32:15;;;;;;;;;;;;;;;;;;5017278;28;20011;-72
2022/12/10 15:34:43;;;;;;;;;;;;;;;;;;5053907;28;20430;-74
2022/12/10 15:37:16;;;;;;;;;;;;;;;;;;5054447;28;19960;-73
2022/12/10 15:39:46;;;;;;;;;;;;;;;;;;5054044;28;19971;-74
2022/12/10 15:42:27;;;;;;;;;;;;;;;;;;5053608;28;19995;-72
2022/12/10 15:44:55;;;;;;;;;;;;;;;;;;5053978;28;19975;-74
2022/12/10 15:47:25;;;;;;;;;;;;;;;;;;5053579;28;19987;-73
2022/12/10 15:49:52;;;;;;;;;;;;;;;;;;5053989;28;19990;-73
2022/12/10 15:52:20;;;;;;;;;;;;;;;;;;5053569;28;19971;-72
2022/12/10 15:54:47;;;;;;;;;;;;;;;;;;5053568;28;19939;-73
2022/12/10 15:57:15;;;;;;;;;;;;;;;;;;5053767;28;19928;-72
2022/12/10 15:59:41;;;;;;;;;;;;;;;;;;5054689;28;19932;-74
2022/12/10 16:02:15;;;;;;;;;;;;;;;;;;5053055;28;19935;-74
2022/12/10 16:04:43;;;;;;;;;;;;;;;;;;5053102;28;19979;-74
2022/12/10 16:07:10;;;;;;;;;;;;;;;;;;5052896;28;20096;-74
2022/12/10 16:09:36;;;;;;;;;;;;;;;;;;5070209;22;20335;-76
2022/12/10 16:12:03;;;;;;;;;;;;;;;;;;5071885;28;20331;-76
2022/12/10 16:14:29;;;;;;;;;;;;;;;;;;5072547;28;20036;-77
2022/12/10 16:16:56;;;;;;;;;;;;;;;;;;5072244;28;20023;-77
2022/12/10 16:19:22;;;;;;;;;;;;;;;;;;5064934;28;19925;-78
2022/12/10 16:21:50;;;;;;;;;;;;;;;;;;5053342;28;19924;-78
2022/12/10 16:24:17;;;;;;;;;;;;;;;;;;5053566;28;20027;-78
2022/12/10 16:26:44;;;;;;;;;;;;;;;;;;5052462;28;19931;-79
2022/12/10 16:29:10;;;;;;;;;;;;;;;;;;5052487;28;19965;-77
2022/12/10 16:31:36;;;;;;;;;;;;;;;;;;5051839;28;20029;-77
2022/12/10 16:34:03;;;;;;;;;;;;;;;;;;5060286;28;19971;-77
2022/12/10 16:36:30;;;;;;;;;;;;;;;;;;5061465;28;19925;-77
2022/12/10 16:38:58;;;;;;;;;;;;;;;;;;5061174;28;19971;-77
2022/12/10 16:41:25;;;;;;;;;;;;;;;;;;5052647;28;20007;-77
2022/12/10 16:43:51;;;;;;;;;;;;;;;;;;5052389;28;20012;-77
2022/12/10 16:46:18;;;;;;;;;;;;;;;;;;5052034;28;19925;-77
2022/12/10 16:48:44;;;;;;;;;;;;;;;;;;5052226;28;19929;-77
2022/12/10 16:51:15;;;;;;;;;;;;;;;;;;5051904;28;19931;-76
2022/12/10 16:53:42;;;;;;;;;;;;;;;;;;5051843;28;19925;-76
2022/12/10 16:56:13;;;;;;;;;;;;;;;;;;5050952;28;19931;-76
2022/12/10 16:58:39;;;;;;;;;;;;;;;;;;5052477;28;20300;-75
2022/12/10 17:01:13;;;;;;;;;;;;;;;;;;5045928;28;19925;-76
2022/12/10 17:03:40;;;;;;;;;;;;;;;;;;5049075;28;19999;-75
2022/12/10 17:06:06;;;;;;;;;;;;;;;;;;5051679;28;20011;-74
2022/12/10 17:08:33;;;;;;;;;;;;;;;;;;5052495;28;19925;-76
2022/12/10 17:13:45;;;;;;;;;;;;;;;;;;5041443;28;19940;-76
2022/12/10 17:16:13;;;;;;;;;;;;;;;;;;5051204;28;19929;-76
2022/12/10 17:18:40;;;;;;;;;;;;;;;;;;5054212;28;20403;-76
2022/12/10 17:21:06;;;;;;;;;;;;;;;;;;5053695;28;19990;-77
2022/12/10 17:23:32;;;;;;;;;;;;;;;;;;5050567;28;19931;-75
2022/12/10 17:26:00;;;;;;;;;;;;;;;;;;5051478;28;20384;-76
2022/12/10 17:28:27;;;;;;;;;;;;;;;;;;5052567;28;19924;-76
2022/12/10 17:30:55;;;;;;;;;;;;;;;;;;5053133;28;19931;-76
2022/12/10 17:33:22;;;;;;;;;;;;;;;;;;5052609;28;20338;-76
2022/12/10 17:35:49;;;;;;;;;;;;;;;;;;5041109;28;19956;-76
2022/12/10 17:38:17;;;;;;;;;;;;;;;;;;5040505;28;19932;-79
2022/12/10 17:40:44;;;;;;;;;;;;;;;;;;5053205;28;19925;-86
2022/12/10 17:43:10;;;;;;;;;;;;;;;;;;5054756;28;20673;-77